createdAt,value
2023-02-15T00:01:25.180Z,16.90
2023-02-15T00:03:52.165Z,17.00
2023-02-15T00:06:18.976Z,17.00
2023-02-15T00:08:45.626Z,16.90
2023-02-15T00:11:13.971Z,17.00
2023-02-15T00:13:43.630Z,16.90
2023-02-15T00:16:11.434Z,16.90
2023-02-15T00:18:39.056Z,16.90
2023-02-15T00:21:10.209Z,16.90
2023-02-15T00:23:37.408Z,16.90
2023-02-15T00:26:08.132Z,16.90
2023-02-15T00:28:34.773Z,16.90
2023-02-15T00:31:09.572Z,16.90
2023-02-15T00:33:36.627Z,17.00
2023-02-15T00:36:05.688Z,17.00
2023-02-15T00:38:32.657Z,17.10
2023-02-15T00:41:00.603Z,17.10
2023-02-15T00:43:28.077Z,17.10
2023-02-15T00:45:54.612Z,17.20
2023-02-15T00:48:21.866Z,17.10
2023-02-15T00:50:55.725Z,17.10
2023-02-15T00:53:22.441Z,17.00
2023-02-15T00:55:49.020Z,17.10
2023-02-15T00:58:16.059Z,17.50
2023-02-15T01:00:43.851Z,17.10
2023-02-15T01:03:10.792Z,17.10
2023-02-15T01:05:37.384Z,17.10
2023-02-15T01:08:04.238Z,17.00
2023-02-15T01:10:30.825Z,17.10
2023-02-15T01:12:57.471Z,17.00
2023-02-15T01:15:24.485Z,17.00
2023-02-15T01:17:53.687Z,17.00
2023-02-15T01:20:21.329Z,17.70
2023-02-15T01:22:50.725Z,17.20
2023-02-15T01:25:18.128Z,17.00
2023-02-15T01:27:44.932Z,17.00
2023-02-15T01:30:12.073Z,17.00
2023-02-15T01:32:38.727Z,17.00
2023-02-15T01:35:05.471Z,17.00
2023-02-15T01:37:32.889Z,17.00
2023-02-15T01:40:01.136Z,17.00
2023-02-15T01:42:28.954Z,17.30
2023-02-15T01:45:00.107Z,17.00
2023-02-15T01:49:59.558Z,17.00
2023-02-15T01:52:26.130Z,16.90
2023-02-15T01:54:52.700Z,16.90
2023-02-15T01:57:22.124Z,16.90
2023-02-15T01:59:51.711Z,17.30
2023-02-15T02:02:21.750Z,16.90
2023-02-15T02:04:49.824Z,16.90
2023-02-15T02:07:20.241Z,16.90
2023-02-15T02:09:47.284Z,16.90
2023-02-15T02:12:14.386Z,16.90
2023-02-15T02:14:41.528Z,16.90
2023-02-15T02:17:17.260Z,16.90
2023-02-15T02:19:55.329Z,16.90
2023-02-15T02:22:40.802Z,16.90
2023-02-15T02:25:16.593Z,16.90
2023-02-15T02:27:51.718Z,16.90
2023-02-15T02:30:38.235Z,16.90
2023-02-15T02:33:10.032Z,16.90
2023-02-15T02:35:53.759Z,16.90
2023-02-15T02:38:39.121Z,16.90
2023-02-15T02:41:32.013Z,16.90
2023-02-15T02:44:13.879Z,16.90
2023-02-15T02:46:53.346Z,16.90
2023-02-15T02:49:33.155Z,16.90
2023-02-15T02:52:03.951Z,16.90
2023-02-15T02:54:31.263Z,16.90
2023-02-15T02:56:59.741Z,17.00
2023-02-15T02:59:29.930Z,17.00
2023-02-15T03:01:58.618Z,17.00
2023-02-15T03:04:31.840Z,17.00
2023-02-15T03:07:00.589Z,17.00
2023-02-15T03:09:35.399Z,17.00
2023-02-15T03:12:04.223Z,17.00
2023-02-15T03:14:31.305Z,17.00
2023-02-15T03:17:00.096Z,17.00
2023-02-15T03:19:28.461Z,17.00
2023-02-15T03:22:10.219Z,17.00
2023-02-15T03:24:38.414Z,16.90
2023-02-15T03:27:07.635Z,16.90
2023-02-15T03:29:35.450Z,16.90
2023-02-15T03:32:04.198Z,16.90
2023-02-15T03:34:30.839Z,16.90
2023-02-15T03:37:01.138Z,16.90
2023-02-15T03:39:39.020Z,16.90
2023-02-15T03:42:05.694Z,16.90
2023-02-15T03:44:34.416Z,16.90
2023-02-15T03:47:09.817Z,16.90
2023-02-15T03:49:40.257Z,16.80
2023-02-15T03:52:08.187Z,16.80
2023-02-15T03:54:44.820Z,16.80
2023-02-15T03:57:41.260Z,16.90
2023-02-15T04:00:32.711Z,16.80
2023-02-15T04:03:18.234Z,16.80
2023-02-15T04:05:45.190Z,16.80
2023-02-15T04:08:12.097Z,16.80
2023-02-15T04:10:54.001Z,16.80
2023-02-15T04:13:20.865Z,16.80
2023-02-15T04:16:06.666Z,17.00
2023-02-15T04:19:02.336Z,16.80
2023-02-15T04:21:48.386Z,16.80
2023-02-15T04:24:33.897Z,16.80
2023-02-15T04:27:00.851Z,16.80
2023-02-15T04:29:28.166Z,16.80
2023-02-15T04:31:56.030Z,16.80
2023-02-15T04:34:22.674Z,16.80
2023-02-15T04:36:49.416Z,16.80
2023-02-15T04:39:16.395Z,16.80
2023-02-15T04:41:43.246Z,16.80
2023-02-15T04:44:09.921Z,16.80
2023-02-15T04:46:36.598Z,16.80
2023-02-15T04:49:03.780Z,16.80
2023-02-15T04:51:30.480Z,16.80
2023-02-15T04:53:57.720Z,16.80
2023-02-15T04:56:24.352Z,16.80
2023-02-15T04:58:50.904Z,16.80
2023-02-15T05:01:17.987Z,16.70
2023-02-15T05:03:44.616Z,16.70
2023-02-15T05:06:11.176Z,16.70
2023-02-15T05:08:37.745Z,16.70
2023-02-15T05:11:04.312Z,16.80
2023-02-15T05:13:30.883Z,16.80
2023-02-15T05:15:57.499Z,16.80
2023-02-15T05:18:24.144Z,16.50
2023-02-15T05:20:50.717Z,16.80
2023-02-15T05:23:17.347Z,16.80
2023-02-15T05:26:06.638Z,16.80
2023-02-15T05:28:33.255Z,16.80
2023-02-15T05:31:05.941Z,16.80
2023-02-15T05:33:33.153Z,16.80
2023-02-15T05:36:01.836Z,16.80
2023-02-15T05:38:29.072Z,16.80
2023-02-15T05:40:55.650Z,16.70
2023-02-15T05:43:22.538Z,16.80
2023-02-15T05:45:50.016Z,16.80
2023-02-15T05:48:17.045Z,16.80
2023-02-15T05:50:43.700Z,16.80
2023-02-15T05:53:10.270Z,16.70
2023-02-15T05:55:40.313Z,16.70
2023-02-15T05:58:07.192Z,16.70
2023-02-15T06:00:34.160Z,16.70
2023-02-15T06:03:00.727Z,16.70
2023-02-15T06:05:27.447Z,16.70
2023-02-15T06:07:54.025Z,16.70
2023-02-15T06:10:20.593Z,16.70
2023-02-15T06:12:47.198Z,16.70
2023-02-15T06:15:14.955Z,16.60
2023-02-15T06:17:42.267Z,16.60
2023-02-15T06:20:09.395Z,16.60
2023-02-15T06:22:36.043Z,16.70
2023-02-15T06:25:02.655Z,16.70
2023-02-15T06:27:29.255Z,16.60
2023-02-15T06:29:55.982Z,16.70
2023-02-15T06:32:22.654Z,16.60
2023-02-15T06:34:49.221Z,16.70
2023-02-15T06:37:15.859Z,16.70
2023-02-15T06:39:43.346Z,16.70
2023-02-15T06:42:09.916Z,16.80
2023-02-15T06:44:36.498Z,16.80
2023-02-15T06:47:03.071Z,16.80
2023-02-15T06:49:29.681Z,16.80
2023-02-15T06:51:56.316Z,16.80
2023-02-15T06:54:22.882Z,16.80
2023-02-15T06:56:49.586Z,16.80
2023-02-15T06:59:16.129Z,16.80
2023-02-15T07:01:42.774Z,16.80
2023-02-15T07:04:09.340Z,16.80
2023-02-15T07:06:36.284Z,16.80
2023-02-15T07:09:03.027Z,16.80
2023-02-15T07:11:52.828Z,16.80
2023-02-15T07:14:19.418Z,16.60
2023-02-15T07:16:45.993Z,16.70
2023-02-15T07:19:12.663Z,16.70
2023-02-15T07:21:39.195Z,16.70
2023-02-15T07:24:05.952Z,16.70
2023-02-15T07:26:33.192Z,16.70
2023-02-15T07:28:59.953Z,16.70
2023-02-15T07:31:26.579Z,16.70
2023-02-15T07:33:53.917Z,16.70
2023-02-15T07:36:20.522Z,16.70
2023-02-15T07:38:47.846Z,16.60
2023-02-15T07:41:15.039Z,16.70
2023-02-15T07:43:42.653Z,16.70
2023-02-15T07:46:10.499Z,16.70
2023-02-15T07:48:37.488Z,16.50
2023-02-15T07:51:04.914Z,16.70
2023-02-15T07:53:31.763Z,16.70
2023-02-15T07:56:05.515Z,16.70
2023-02-15T07:58:50.953Z,16.70
2023-02-15T08:01:18.601Z,16.70
2023-02-15T08:03:45.193Z,16.70
2023-02-15T08:06:14.612Z,16.60
2023-02-15T08:08:41.434Z,16.70
2023-02-15T08:11:29.619Z,16.70
2023-02-15T08:13:56.245Z,16.60
2023-02-15T08:16:33.792Z,16.70
2023-02-15T08:19:02.208Z,16.70
2023-02-15T08:21:29.310Z,16.70
2023-02-15T08:23:57.897Z,16.70
2023-02-15T08:26:25.251Z,16.70
2023-02-15T08:28:52.412Z,16.70
2023-02-15T08:31:19.052Z,16.80
2023-02-15T08:33:46.845Z,16.80
2023-02-15T08:36:14.749Z,16.90
2023-02-15T08:38:41.717Z,17.00
2023-02-15T08:41:11.223Z,16.90
2023-02-15T08:43:37.888Z,16.90
2023-02-15T08:46:04.534Z,17.00
2023-02-15T08:48:31.093Z,17.00
2023-02-15T08:50:57.668Z,17.00
2023-02-15T08:53:24.391Z,17.10
2023-02-15T08:55:57.950Z,17.00
2023-02-15T08:58:24.943Z,16.90
2023-02-15T09:00:51.790Z,16.90
2023-02-15T09:03:18.398Z,16.90
2023-02-15T09:05:44.949Z,16.90
2023-02-15T09:08:11.576Z,16.80
2023-02-15T09:10:38.152Z,16.80
2023-02-15T09:13:04.789Z,16.80
2023-02-15T09:15:31.576Z,16.80
2023-02-15T09:18:02.317Z,16.80
2023-02-15T09:20:29.794Z,16.80
2023-02-15T09:22:59.067Z,16.80
2023-02-15T09:25:26.766Z,16.80
2023-02-15T09:27:53.371Z,16.80
2023-02-15T09:30:20.312Z,16.80
2023-02-15T09:32:47.839Z,16.70
2023-02-15T09:35:14.445Z,16.70
2023-02-15T09:37:41.186Z,16.70
2023-02-15T09:40:07.873Z,16.70
2023-02-15T09:42:40.748Z,16.70
2023-02-15T09:45:07.904Z,16.70
2023-02-15T09:47:45.588Z,16.70
2023-02-15T09:50:31.227Z,16.70
2023-02-15T09:53:07.006Z,16.70
2023-02-15T09:55:33.545Z,16.70
2023-02-15T09:58:03.577Z,16.70
2023-02-15T10:00:36.403Z,16.70
2023-02-15T10:03:26.215Z,16.60
2023-02-15T10:06:02.393Z,16.70
2023-02-15T10:08:34.766Z,16.60
2023-02-15T10:11:31.779Z,16.60
2023-02-15T10:14:07.138Z,16.60
2023-02-15T10:16:52.883Z,16.60
2023-02-15T10:19:38.322Z,16.60
2023-02-15T10:22:23.175Z,16.60
2023-02-15T10:24:49.782Z,16.70
2023-02-15T10:27:19.893Z,16.60
2023-02-15T10:30:05.879Z,16.70
2023-02-15T10:32:37.257Z,16.70
2023-02-15T10:35:12.664Z,16.70
2023-02-15T10:38:08.582Z,16.70
2023-02-15T10:40:47.402Z,16.80
2023-02-15T10:43:33.057Z,16.90
2023-02-15T10:46:07.858Z,16.90
2023-02-15T10:48:43.535Z,17.00
2023-02-15T10:51:12.997Z,17.00
2023-02-15T10:53:55.293Z,17.00
2023-02-15T10:56:22.051Z,17.00
2023-02-15T10:58:54.770Z,17.00
2023-02-15T11:01:24.493Z,17.00
2023-02-15T11:04:09.459Z,16.90
2023-02-15T11:06:37.497Z,16.90
2023-02-15T11:09:06.653Z,16.90
2023-02-15T11:11:36.025Z,16.80
2023-02-15T11:14:10.967Z,16.80
2023-02-15T11:16:39.179Z,16.80
2023-02-15T11:19:27.579Z,16.80
2023-02-15T11:21:55.958Z,16.80
2023-02-15T11:24:26.253Z,16.80
2023-02-15T11:26:56.178Z,16.80
2023-02-15T11:29:24.228Z,16.80
2023-02-15T11:31:54.082Z,16.80
2023-02-15T11:34:41.008Z,16.80
2023-02-15T11:37:13.128Z,17.00
2023-02-15T11:39:39.728Z,16.70
2023-02-15T11:42:10.663Z,16.70
2023-02-15T11:44:51.103Z,16.70
2023-02-15T11:47:17.680Z,16.80
2023-02-15T11:49:45.407Z,16.70
2023-02-15T11:52:14.051Z,16.80
2023-02-15T11:54:45.997Z,16.80
2023-02-15T11:57:18.992Z,16.70
2023-02-15T11:59:49.358Z,16.70
2023-02-15T12:02:23.580Z,16.80
2023-02-15T12:05:00.698Z,16.70
2023-02-15T12:07:29.420Z,16.70
2023-02-15T12:10:12.804Z,16.80
2023-02-15T12:12:39.564Z,16.80
2023-02-15T12:15:09.970Z,16.80
2023-02-15T12:17:41.299Z,16.80
2023-02-15T12:20:28.245Z,16.80
2023-02-15T12:22:56.452Z,16.80
2023-02-15T12:25:26.853Z,16.80
2023-02-15T12:27:53.530Z,16.80
2023-02-15T12:30:22.983Z,16.80
2023-02-15T12:32:54.599Z,16.90
2023-02-15T12:35:31.577Z,16.90
2023-02-15T12:38:02.879Z,17.00
2023-02-15T12:40:34.218Z,17.10
2023-02-15T12:43:00.848Z,17.10
2023-02-15T12:45:31.835Z,17.10
2023-02-15T12:48:16.762Z,17.10
2023-02-15T12:50:44.253Z,17.10
2023-02-15T12:53:20.138Z,17.10
2023-02-15T12:55:51.131Z,17.10
2023-02-15T12:58:18.533Z,17.10
2023-02-15T13:00:46.464Z,17.10
2023-02-15T13:03:21.277Z,17.10
2023-02-15T13:05:50.630Z,17.10
2023-02-15T13:08:18.177Z,17.00
2023-02-15T13:10:59.014Z,17.00
2023-02-15T13:13:27.635Z,17.00
2023-02-15T13:15:57.006Z,17.00
2023-02-15T13:18:31.955Z,16.90
2023-02-15T13:21:01.885Z,17.00
2023-02-15T13:23:31.074Z,16.90
2023-02-15T13:25:59.157Z,17.00
2023-02-15T13:28:29.198Z,17.00
2023-02-15T13:30:56.138Z,17.00
2023-02-15T13:33:34.205Z,17.00
2023-02-15T13:36:21.303Z,17.00
2023-02-15T13:38:53.662Z,16.90
2023-02-15T13:41:44.463Z,17.00
2023-02-15T13:44:25.105Z,16.90
2023-02-15T13:46:57.861Z,16.90
2023-02-15T13:49:30.524Z,17.00
2023-02-15T13:52:19.242Z,17.00
2023-02-15T13:54:53.049Z,17.00
2023-02-15T13:57:29.769Z,17.00
2023-02-15T14:00:16.784Z,17.00
2023-02-15T14:02:43.342Z,16.90
2023-02-15T14:05:26.923Z,17.00
2023-02-15T14:08:12.418Z,17.00
2023-02-15T14:10:44.909Z,16.90
2023-02-15T14:13:20.487Z,16.90
2023-02-15T14:15:56.782Z,17.00
2023-02-15T14:18:23.364Z,17.10
2023-02-15T14:21:00.132Z,17.20
2023-02-15T14:23:37.147Z,17.30
2023-02-15T14:26:07.401Z,17.30
2023-02-15T14:28:36.267Z,17.30
2023-02-15T14:31:04.609Z,17.20
2023-02-15T14:33:37.549Z,17.40
2023-02-15T14:36:07.335Z,17.20
2023-02-15T14:38:52.629Z,17.20
2023-02-15T14:41:19.181Z,17.20
2023-02-15T14:43:53.632Z,17.20
2023-02-15T14:46:29.946Z,17.20
2023-02-15T14:48:58.270Z,17.20
2023-02-15T14:51:46.511Z,17.20
2023-02-15T14:54:22.085Z,17.20
2023-02-15T14:57:01.008Z,17.10
2023-02-15T14:59:39.952Z,17.10
2023-02-15T15:02:09.721Z,17.10
2023-02-15T15:04:38.244Z,17.10
2023-02-15T15:07:05.561Z,17.10
2023-02-15T15:09:34.083Z,17.10
2023-02-15T15:12:19.616Z,17.00
2023-02-15T15:14:46.774Z,16.90
2023-02-15T15:17:38.777Z,16.90
2023-02-15T15:20:08.185Z,17.00
2023-02-15T15:22:35.408Z,16.90
2023-02-15T15:25:10.400Z,16.90
2023-02-15T15:27:37.809Z,16.90
2023-02-15T15:30:24.897Z,16.80
2023-02-15T15:32:54.584Z,16.90
2023-02-15T15:35:33.474Z,16.90
2023-02-15T15:38:13.203Z,16.90
2023-02-15T15:41:03.205Z,17.00
2023-02-15T15:43:34.882Z,17.00
2023-02-15T15:46:06.844Z,17.00
2023-02-15T15:48:34.461Z,17.10
2023-02-15T15:51:03.044Z,17.30
2023-02-15T15:53:30.447Z,17.20
2023-02-15T15:56:00.505Z,17.20
2023-02-15T15:58:27.561Z,17.20
2023-02-15T16:01:00.525Z,17.10
2023-02-15T16:03:27.797Z,17.10
2023-02-15T16:06:01.106Z,17.10
2023-02-15T16:08:29.179Z,17.10
2023-02-15T16:10:56.194Z,17.10
2023-02-15T16:13:23.074Z,17.10
2023-02-15T16:15:53.477Z,17.10
2023-02-15T16:18:21.952Z,17.10
2023-02-15T16:20:56.412Z,17.10
2023-02-15T16:23:29.069Z,17.10
2023-02-15T16:26:14.618Z,16.90
2023-02-15T16:28:48.180Z,17.10
2023-02-15T16:31:16.352Z,17.10
2023-02-15T16:33:44.000Z,17.10
2023-02-15T16:36:11.779Z,17.10
2023-02-15T16:38:44.203Z,17.10
2023-02-15T16:41:31.098Z,17.10
2023-02-15T16:43:59.368Z,17.10
2023-02-15T16:46:33.510Z,17.10
2023-02-15T16:49:02.857Z,17.10
2023-02-15T16:51:30.716Z,17.10
2023-02-15T16:53:59.216Z,17.10
2023-02-15T16:56:27.587Z,17.10
2023-02-15T16:58:55.383Z,17.20
2023-02-15T17:01:24.545Z,17.00
2023-02-15T17:03:51.926Z,17.00
2023-02-15T17:06:26.822Z,17.10
2023-02-15T17:08:54.018Z,17.10
2023-02-15T17:11:21.813Z,17.40
2023-02-15T17:14:07.523Z,17.20
2023-02-15T17:16:54.264Z,17.30
2023-02-15T17:19:29.079Z,17.30
2023-02-15T17:22:07.498Z,17.30
2023-02-15T17:24:42.307Z,17.30
2023-02-15T17:27:17.357Z,17.30
2023-02-15T17:29:48.576Z,17.30
2023-02-15T17:32:20.212Z,17.30
2023-02-15T17:34:57.287Z,17.20
2023-02-15T17:37:26.217Z,17.20
2023-02-15T17:39:53.231Z,17.20
2023-02-15T17:42:19.808Z,17.20
2023-02-15T17:44:46.455Z,17.20
2023-02-15T17:47:21.155Z,17.10
2023-02-15T17:49:50.058Z,17.10
2023-02-15T17:52:18.317Z,17.20
2023-02-15T17:55:03.862Z,17.40
2023-02-15T17:57:31.171Z,17.10
2023-02-15T18:00:16.590Z,17.10
2023-02-15T18:03:02.232Z,17.10
2023-02-15T18:05:47.449Z,17.10
2023-02-15T18:08:36.757Z,17.10
2023-02-15T18:11:21.823Z,17.10
2023-02-15T18:13:48.626Z,17.10
2023-02-15T18:16:16.539Z,17.10
2023-02-15T18:18:43.980Z,17.20
2023-02-15T18:21:12.278Z,17.30
2023-02-15T18:23:39.608Z,17.30
2023-02-15T18:26:06.477Z,17.30
2023-02-15T18:28:33.227Z,17.30
2023-02-15T18:31:00.267Z,17.30
2023-02-15T18:33:35.168Z,17.50
2023-02-15T18:36:03.245Z,17.30
2023-02-15T18:38:30.295Z,17.40
2023-02-15T18:40:56.976Z,17.40
2023-02-15T18:43:23.671Z,17.30
2023-02-15T18:45:50.278Z,17.30
2023-02-15T18:48:16.888Z,17.30
2023-02-15T18:50:43.516Z,17.20
2023-02-15T18:53:18.589Z,17.20
2023-02-15T18:55:45.508Z,17.20
2023-02-15T18:58:20.064Z,17.20
2023-02-15T19:00:47.112Z,17.20
2023-02-15T19:03:14.481Z,17.50
2023-02-15T19:05:42.871Z,17.10
2023-02-15T19:08:15.857Z,17.80
2023-02-15T19:10:42.832Z,17.10
2023-02-15T19:13:10.716Z,17.10
2023-02-15T19:15:37.372Z,17.10
2023-02-15T19:18:04.208Z,16.90
2023-02-15T19:20:38.782Z,17.10
2023-02-15T19:23:11.957Z,17.10
2023-02-15T19:25:39.839Z,17.10
2023-02-15T19:28:17.246Z,17.00
2023-02-15T19:30:44.208Z,17.00
2023-02-15T19:33:19.320Z,17.10
2023-02-15T19:35:47.270Z,17.10
2023-02-15T19:38:19.259Z,17.10
2023-02-15T19:40:46.253Z,17.10
2023-02-15T19:43:20.302Z,17.20
2023-02-15T19:45:46.987Z,17.30
2023-02-15T19:48:14.763Z,17.30
2023-02-15T19:50:43.569Z,17.30
2023-02-15T19:53:26.700Z,17.40
2023-02-15T19:55:53.624Z,17.40
2023-02-15T19:58:20.882Z,17.40
2023-02-15T20:00:48.313Z,17.90
2023-02-15T20:03:15.390Z,17.40
2023-02-15T20:05:42.476Z,17.30
2023-02-15T20:08:19.511Z,17.30
2023-02-15T20:10:46.481Z,17.30
2023-02-15T20:13:14.784Z,17.30
2023-02-15T20:15:41.548Z,17.20
2023-02-15T20:18:08.350Z,17.20
2023-02-15T20:20:46.936Z,17.20
2023-02-15T20:23:16.301Z,17.10
2023-02-15T20:25:42.946Z,17.10
2023-02-15T20:28:14.872Z,17.10
2023-02-15T20:30:41.441Z,17.10
2023-02-15T20:33:08.005Z,17.10
2023-02-15T20:35:34.557Z,17.20
2023-02-15T20:38:02.756Z,17.10
2023-02-15T20:40:33.527Z,17.10
2023-02-15T20:43:00.445Z,17.10
2023-02-15T20:45:28.524Z,17.10
2023-02-15T20:47:55.711Z,17.10
2023-02-15T20:50:23.773Z,17.10
2023-02-15T20:52:51.379Z,17.10
2023-02-15T20:55:19.223Z,17.10
2023-02-15T20:57:46.091Z,17.00
2023-02-15T21:00:13.668Z,17.10
2023-02-15T21:02:40.571Z,17.00
2023-02-15T21:05:33.680Z,17.10
2023-02-15T21:08:00.263Z,17.00
2023-02-15T21:10:29.324Z,17.00
2023-02-15T21:12:57.150Z,17.00
2023-02-15T21:15:49.918Z,17.00
2023-02-15T21:18:18.851Z,17.00
2023-02-15T21:20:46.958Z,17.00
2023-02-15T21:23:14.388Z,17.00
2023-02-15T21:25:41.230Z,17.00
2023-02-15T21:28:15.285Z,17.00
2023-02-15T21:30:41.853Z,17.00
2023-02-15T21:33:08.406Z,17.00
2023-02-15T21:35:35.072Z,17.10
2023-02-15T21:38:01.646Z,17.10
2023-02-15T21:40:29.473Z,17.20
2023-02-15T21:43:15.041Z,17.20
2023-02-15T21:46:00.407Z,17.30
2023-02-15T21:48:27.585Z,17.30
2023-02-15T21:51:13.130Z,17.30
2023-02-15T21:53:42.559Z,17.80
2023-02-15T21:56:15.969Z,17.30
2023-02-15T21:58:42.800Z,17.20
2023-02-15T22:01:18.507Z,17.20
2023-02-15T22:03:45.357Z,17.20
2023-02-15T22:06:12.294Z,17.20
2023-02-15T22:08:38.894Z,17.10
2023-02-15T22:11:09.898Z,17.10
2023-02-15T22:13:36.460Z,17.10
2023-02-15T22:16:03.283Z,17.10
2023-02-15T22:18:33.550Z,17.10
2023-02-15T22:21:01.526Z,17.10
2023-02-15T22:23:28.258Z,17.10
2023-02-15T22:26:08.657Z,17.10
2023-02-15T22:28:37.035Z,17.00
2023-02-15T22:31:04.595Z,17.00
2023-02-15T22:33:32.720Z,17.10
2023-02-15T22:35:59.789Z,17.00
2023-02-15T22:38:26.431Z,17.00
2023-02-15T22:40:55.032Z,17.10
2023-02-15T22:43:30.449Z,17.00
2023-02-15T22:45:59.488Z,17.00
2023-02-15T22:48:26.219Z,17.00
2023-02-15T22:50:53.004Z,17.00
2023-02-15T22:53:19.546Z,17.00
2023-02-15T22:55:46.322Z,17.00
2023-02-15T22:58:16.368Z,17.00
2023-02-15T23:00:43.492Z,17.00
2023-02-15T23:03:13.486Z,17.00
2023-02-15T23:05:40.165Z,17.00
2023-02-15T23:08:07.376Z,17.00
2023-02-15T23:10:33.962Z,17.00
2023-02-15T23:13:20.128Z,17.00
2023-02-15T23:15:51.051Z,17.00
2023-02-15T23:18:22.828Z,17.00
2023-02-15T23:20:51.558Z,17.00
2023-02-15T23:23:20.032Z,17.00
2023-02-15T23:25:46.624Z,16.90
2023-02-15T23:28:20.605Z,16.90
2023-02-15T23:30:47.646Z,16.90
2023-02-15T23:33:14.432Z,16.90
2023-02-15T23:35:41.016Z,16.80
2023-02-15T23:38:30.899Z,16.90
2023-02-15T23:41:16.906Z,16.90
2023-02-15T23:43:45.707Z,16.90
2023-02-15T23:46:21.962Z,16.90
2023-02-15T23:48:48.712Z,16.90
2023-02-15T23:51:15.292Z,17.00
2023-02-15T23:53:41.855Z,17.00
2023-02-15T23:56:11.267Z,17.10
2023-02-15T23:58:40.296Z,17.10
